sensor_id;sensor_type;location;lat;lon;timestamp;P1;durP1;ratioP1;P2;durP2;ratioP2
36797;SDS011;22748;8.426;99.512;2022-08-21T00:00:39;16.08;;;8.65;;
36797;SDS011;22748;8.426;99.512;2022-08-21T00:03:12;44.75;;;35.35;;
36797;SDS011;22748;8.426;99.512;2022-08-21T00:05:44;25.98;;;20.88;;
36797;SDS011;22748;8.426;99.512;2022-08-21T00:08:20;13.52;;;9.30;;
36797;SDS011;22748;8.426;99.512;2022-08-21T00:10:50;11.05;;;8.02;;
36797;SDS011;22748;8.426;99.512;2022-08-21T00:13:20;13.32;;;8.73;;
36797;SDS011;22748;8.426;99.512;2022-08-21T00:15:52;16.88;;;9.65;;
36797;SDS011;22748;8.426;99.512;2022-08-21T00:18:23;26.65;;;11.18;;
36797;SDS011;22748;8.426;99.512;2022-08-21T00:20:55;18.75;;;9.18;;
36797;SDS011;22748;8.426;99.512;2022-08-21T00:23:25;23.63;;;9.68;;
36797;SDS011;22748;8.426;99.512;2022-08-21T00:25:56;13.65;;;8.05;;
36797;SDS011;22748;8.426;99.512;2022-08-21T00:28:27;11.45;;;7.28;;
36797;SDS011;22748;8.426;99.512;2022-08-21T00:30:59;10.38;;;6.40;;
36797;SDS011;22748;8.426;99.512;2022-08-21T00:33:31;15.85;;;12.00;;
36797;SDS011;22748;8.426;99.512;2022-08-21T00:36:01;11.30;;;8.00;;
36797;SDS011;22748;8.426;99.512;2022-08-21T00:38:32;12.77;;;8.30;;
36797;SDS011;22748;8.426;99.512;2022-08-21T00:41:03;66.45;;;21.33;;
36797;SDS011;22748;8.426;99.512;2022-08-21T00:43:39;24.85;;;9.18;;
36797;SDS011;22748;8.426;99.512;2022-08-21T00:46:18;27.85;;;10.07;;
36797;SDS011;22748;8.426;99.512;2022-08-21T00:48:50;20.77;;;8.63;;
36797;SDS011;22748;8.426;99.512;2022-08-21T00:51:21;17.85;;;9.40;;
36797;SDS011;22748;8.426;99.512;2022-08-21T00:54:07;22.58;;;9.05;;
36797;SDS011;22748;8.426;99.512;2022-08-21T00:56:40;15.93;;;6.20;;
36797;SDS011;22748;8.426;99.512;2022-08-21T01:01:45;19.15;;;5.70;;
36797;SDS011;22748;8.426;99.512;2022-08-21T01:04:17;10.65;;;5.70;;
36797;SDS011;22748;8.426;99.512;2022-08-21T01:06:48;9.95;;;5.43;;
36797;SDS011;22748;8.426;99.512;2022-08-21T01:09:19;8.15;;;5.10;;
36797;SDS011;22748;8.426;99.512;2022-08-21T01:11:52;10.13;;;5.00;;
36797;SDS011;22748;8.426;99.512;2022-08-21T01:14:26;11.70;;;5.18;;
36797;SDS011;22748;8.426;99.512;2022-08-21T01:16:59;12.85;;;4.85;;
36797;SDS011;22748;8.426;99.512;2022-08-21T01:19:31;9.90;;;4.93;;
36797;SDS011;22748;8.426;99.512;2022-08-21T01:22:02;12.52;;;5.63;;
36797;SDS011;22748;8.426;99.512;2022-08-21T01:24:32;10.40;;;5.70;;
36797;SDS011;22748;8.426;99.512;2022-08-21T01:27:03;9.60;;;4.47;;
36797;SDS011;22748;8.426;99.512;2022-08-21T01:29:34;8.50;;;3.88;;
36797;SDS011;22748;8.426;99.512;2022-08-21T01:32:11;7.45;;;3.45;;
36797;SDS011;22748;8.426;99.512;2022-08-21T01:34:45;12.38;;;6.32;;
36797;SDS011;22748;8.426;99.512;2022-08-21T01:37:20;8.10;;;3.55;;
36797;SDS011;22748;8.426;99.512;2022-08-21T01:39:50;19.92;;;11.65;;
36797;SDS011;22748;8.426;99.512;2022-08-21T01:42:23;15.07;;;8.60;;
36797;SDS011;22748;8.426;99.512;2022-08-21T01:44:53;12.20;;;5.18;;
36797;SDS011;22748;8.426;99.512;2022-08-21T01:47:22;11.15;;;4.05;;
36797;SDS011;22748;8.426;99.512;2022-08-21T01:49:52;9.37;;;3.53;;
36797;SDS011;22748;8.426;99.512;2022-08-21T01:52:24;9.60;;;3.35;;
36797;SDS011;22748;8.426;99.512;2022-08-21T01:54:57;11.57;;;3.22;;
36797;SDS011;22748;8.426;99.512;2022-08-21T01:57:27;6.97;;;2.78;;
36797;SDS011;22748;8.426;99.512;2022-08-21T01:59:59;8.98;;;2.80;;
36797;SDS011;22748;8.426;99.512;2022-08-21T02:02:30;7.55;;;3.20;;
36797;SDS011;22748;8.426;99.512;2022-08-21T02:05:01;9.18;;;3.22;;
36797;SDS011;22748;8.426;99.512;2022-08-21T02:10:06;12.35;;;6.13;;
36797;SDS011;22748;8.426;99.512;2022-08-21T02:12:38;22.40;;;15.70;;
36797;SDS011;22748;8.426;99.512;2022-08-21T02:15:10;16.92;;;10.25;;
36797;SDS011;22748;8.426;99.512;2022-08-21T02:17:42;13.07;;;6.85;;
36797;SDS011;22748;8.426;99.512;2022-08-21T02:20:17;14.55;;;6.50;;
36797;SDS011;22748;8.426;99.512;2022-08-21T02:22:50;18.88;;;8.93;;
36797;SDS011;22748;8.426;99.512;2022-08-21T02:25:23;25.83;;;18.92;;
36797;SDS011;22748;8.426;99.512;2022-08-21T02:27:56;16.63;;;12.68;;
36797;SDS011;22748;8.426;99.512;2022-08-21T02:30:29;13.75;;;9.60;;
36797;SDS011;22748;8.426;99.512;2022-08-21T02:33:02;13.50;;;6.45;;
36797;SDS011;22748;8.426;99.512;2022-08-21T02:35:34;25.80;;;21.05;;
36797;SDS011;22748;8.426;99.512;2022-08-21T02:38:08;28.73;;;21.50;;
36797;SDS011;22748;8.426;99.512;2022-08-21T02:40:46;18.02;;;9.90;;
36797;SDS011;22748;8.426;99.512;2022-08-21T02:43:19;20.95;;;14.25;;
36797;SDS011;22748;8.426;99.512;2022-08-21T02:45:53;10.32;;;4.93;;
36797;SDS011;22748;8.426;99.512;2022-08-21T02:48:27;13.30;;;6.32;;
36797;SDS011;22748;8.426;99.512;2022-08-21T02:51:02;10.52;;;4.22;;
36797;SDS011;22748;8.426;99.512;2022-08-21T02:53:35;8.68;;;3.53;;
36797;SDS011;22748;8.426;99.512;2022-08-21T02:56:08;10.18;;;4.05;;
36797;SDS011;22748;8.426;99.512;2022-08-21T02:58:41;13.55;;;4.97;;
36797;SDS011;22748;8.426;99.512;2022-08-21T03:01:13;9.65;;;3.83;;
36797;SDS011;22748;8.426;99.512;2022-08-21T03:03:44;10.90;;;3.03;;
36797;SDS011;22748;8.426;99.512;2022-08-21T03:06:18;9.85;;;3.03;;
36797;SDS011;22748;8.426;99.512;2022-08-21T03:08:52;7.57;;;2.47;;
36797;SDS011;22748;8.426;99.512;2022-08-21T03:11:21;13.20;;;6.15;;
36797;SDS011;22748;8.426;99.512;2022-08-21T03:13:51;10.10;;;3.17;;
36797;SDS011;22748;8.426;99.512;2022-08-21T03:16:21;6.30;;;2.50;;
36797;SDS011;22748;8.426;99.512;2022-08-21T03:18:51;13.32;;;10.32;;
36797;SDS011;22748;8.426;99.512;2022-08-21T03:21:21;8.27;;;2.70;;
36797;SDS011;22748;8.426;99.512;2022-08-21T03:23:52;5.93;;;2.95;;
36797;SDS011;22748;8.426;99.512;2022-08-21T03:26:23;6.47;;;2.63;;
36797;SDS011;22748;8.426;99.512;2022-08-21T03:28:53;6.00;;;2.45;;
36797;SDS011;22748;8.426;99.512;2022-08-21T03:31:28;15.07;;;3.80;;
36797;SDS011;22748;8.426;99.512;2022-08-21T03:34:00;10.35;;;3.10;;
36797;SDS011;22748;8.426;99.512;2022-08-21T03:36:30;5.88;;;2.40;;
36797;SDS011;22748;8.426;99.512;2022-08-21T03:39:02;8.57;;;3.17;;
36797;SDS011;22748;8.426;99.512;2022-08-21T03:41:34;10.07;;;2.67;;
36797;SDS011;22748;8.426;99.512;2022-08-21T03:44:06;8.77;;;2.47;;
36797;SDS011;22748;8.426;99.512;2022-08-21T03:46:37;9.50;;;3.63;;
36797;SDS011;22748;8.426;99.512;2022-08-21T03:49:10;17.23;;;6.88;;
36797;SDS011;22748;8.426;99.512;2022-08-21T03:51:42;14.95;;;6.32;;
36797;SDS011;22748;8.426;99.512;2022-08-21T03:54:18;13.27;;;5.50;;
36797;SDS011;22748;8.426;99.512;2022-08-21T03:56:51;11.52;;;5.32;;
36797;SDS011;22748;8.426;99.512;2022-08-21T03:59:22;18.15;;;9.48;;
36797;SDS011;22748;8.426;99.512;2022-08-21T04:01:56;21.73;;;8.90;;
36797;SDS011;22748;8.426;99.512;2022-08-21T04:04:28;10.18;;;4.30;;
36797;SDS011;22748;8.426;99.512;2022-08-21T04:07:01;10.57;;;3.15;;
36797;SDS011;22748;8.426;99.512;2022-08-21T04:09:35;11.38;;;3.30;;
36797;SDS011;22748;8.426;99.512;2022-08-21T04:12:05;11.80;;;4.38;;
36797;SDS011;22748;8.426;99.512;2022-08-21T04:14:36;8.85;;;5.10;;
36797;SDS011;22748;8.426;99.512;2022-08-21T04:17:10;8.48;;;3.03;;
36797;SDS011;22748;8.426;99.512;2022-08-21T04:19:41;12.63;;;4.60;;
36797;SDS011;22748;8.426;99.512;2022-08-21T04:24:42;8.60;;;3.97;;
36797;SDS011;22748;8.426;99.512;2022-08-21T04:27:12;12.23;;;9.05;;
36797;SDS011;22748;8.426;99.512;2022-08-21T04:29:41;14.23;;;9.85;;
36797;SDS011;22748;8.426;99.512;2022-08-21T04:32:12;15.68;;;11.75;;
36797;SDS011;22748;8.426;99.512;2022-08-21T04:34:43;12.07;;;6.78;;
36797;SDS011;22748;8.426;99.512;2022-08-21T04:39:44;11.32;;;3.65;;
36797;SDS011;22748;8.426;99.512;2022-08-21T04:42:15;8.30;;;3.08;;
36797;SDS011;22748;8.426;99.512;2022-08-21T04:44:47;6.38;;;2.72;;
36797;SDS011;22748;8.426;99.512;2022-08-21T04:47:23;6.32;;;2.33;;
36797;SDS011;22748;8.426;99.512;2022-08-21T04:52:24;8.30;;;4.93;;
36797;SDS011;22748;8.426;99.512;2022-08-21T04:54:57;9.27;;;3.42;;
36797;SDS011;22748;8.426;99.512;2022-08-21T04:57:30;7.97;;;3.38;;
36797;SDS011;22748;8.426;99.512;2022-08-21T05:00:03;14.55;;;4.15;;
36797;SDS011;22748;8.426;99.512;2022-08-21T05:02:36;7.03;;;3.30;;
36797;SDS011;22748;8.426;99.512;2022-08-21T05:05:08;9.55;;;2.92;;
36797;SDS011;22748;8.426;99.512;2022-08-21T05:07:40;6.57;;;2.72;;
36797;SDS011;22748;8.426;99.512;2022-08-21T05:10:17;8.05;;;2.45;;
36797;SDS011;22748;8.426;99.512;2022-08-21T05:12:48;9.35;;;2.15;;
36797;SDS011;22748;8.426;99.512;2022-08-21T05:15:19;8.50;;;1.85;;
36797;SDS011;22748;8.426;99.512;2022-08-21T05:17:51;9.60;;;2.20;;
36797;SDS011;22748;8.426;99.512;2022-08-21T05:20:24;5.18;;;1.77;;
36797;SDS011;22748;8.426;99.512;2022-08-21T05:22:56;5.22;;;2.45;;
36797;SDS011;22748;8.426;99.512;2022-08-21T05:25:29;6.25;;;2.50;;
36797;SDS011;22748;8.426;99.512;2022-08-21T05:28:02;4.90;;;2.15;;
36797;SDS011;22748;8.426;99.512;2022-08-21T05:30:33;4.05;;;1.85;;
36797;SDS011;22748;8.426;99.512;2022-08-21T05:33:05;5.75;;;2.10;;
36797;SDS011;22748;8.426;99.512;2022-08-21T05:35:38;10.70;;;3.50;;
36797;SDS011;22748;8.426;99.512;2022-08-21T05:38:11;7.72;;;3.25;;
36797;SDS011;22748;8.426;99.512;2022-08-21T05:40:44;8.32;;;3.08;;
36797;SDS011;22748;8.426;99.512;2022-08-21T05:43:16;9.48;;;3.95;;
36797;SDS011;22748;8.426;99.512;2022-08-21T05:45:49;11.40;;;6.22;;
36797;SDS011;22748;8.426;99.512;2022-08-21T05:48:21;8.40;;;4.07;;
36797;SDS011;22748;8.426;99.512;2022-08-21T05:50:52;11.27;;;5.07;;
36797;SDS011;22748;8.426;99.512;2022-08-21T05:53:25;8.63;;;3.60;;
36797;SDS011;22748;8.426;99.512;2022-08-21T05:55:58;4.97;;;3.00;;
36797;SDS011;22748;8.426;99.512;2022-08-21T05:58:30;7.88;;;3.13;;
36797;SDS011;22748;8.426;99.512;2022-08-21T06:01:03;8.82;;;3.03;;
36797;SDS011;22748;8.426;99.512;2022-08-21T06:03:35;7.85;;;2.95;;
36797;SDS011;22748;8.426;99.512;2022-08-21T06:06:07;6.70;;;2.65;;
36797;SDS011;22748;8.426;99.512;2022-08-21T06:08:38;4.57;;;2.30;;
36797;SDS011;22748;8.426;99.512;2022-08-21T06:11:11;7.55;;;2.97;;
36797;SDS011;22748;8.426;99.512;2022-08-21T06:13:41;7.47;;;3.90;;
36797;SDS011;22748;8.426;99.512;2022-08-21T06:16:15;6.47;;;4.10;;
36797;SDS011;22748;8.426;99.512;2022-08-21T06:18:45;9.45;;;4.03;;
36797;SDS011;22748;8.426;99.512;2022-08-21T06:21:16;8.95;;;3.10;;
36797;SDS011;22748;8.426;99.512;2022-08-21T06:23:46;5.05;;;2.40;;
36797;SDS011;22748;8.426;99.512;2022-08-21T06:26:21;8.40;;;3.00;;
36797;SDS011;22748;8.426;99.512;2022-08-21T06:28:51;6.28;;;3.30;;
36797;SDS011;22748;8.426;99.512;2022-08-21T06:31:23;9.75;;;3.90;;
36797;SDS011;22748;8.426;99.512;2022-08-21T06:33:56;12.27;;;3.20;;
36797;SDS011;22748;8.426;99.512;2022-08-21T06:36:26;11.00;;;3.63;;
36797;SDS011;22748;8.426;99.512;2022-08-21T06:38:56;5.70;;;3.20;;
36797;SDS011;22748;8.426;99.512;2022-08-21T06:41:28;6.00;;;3.60;;
36797;SDS011;22748;8.426;99.512;2022-08-21T06:44:01;6.60;;;3.63;;
36797;SDS011;22748;8.426;99.512;2022-08-21T06:46:31;6.85;;;3.40;;
36797;SDS011;22748;8.426;99.512;2022-08-21T06:49:01;9.53;;;3.50;;
36797;SDS011;22748;8.426;99.512;2022-08-21T06:51:34;5.35;;;2.90;;
36797;SDS011;22748;8.426;99.512;2022-08-21T06:54:04;12.38;;;4.25;;
36797;SDS011;22748;8.426;99.512;2022-08-21T06:56:36;7.72;;;3.42;;
36797;SDS011;22748;8.426;99.512;2022-08-21T06:59:06;8.88;;;3.20;;
36797;SDS011;22748;8.426;99.512;2022-08-21T07:01:37;16.80;;;6.47;;
36797;SDS011;22748;8.426;99.512;2022-08-21T07:04:09;8.75;;;4.05;;
36797;SDS011;22748;8.426;99.512;2022-08-21T07:06:39;8.65;;;3.63;;
36797;SDS011;22748;8.426;99.512;2022-08-21T07:09:11;8.65;;;2.83;;
36797;SDS011;22748;8.426;99.512;2022-08-21T07:11:43;10.90;;;3.40;;
36797;SDS011;22748;8.426;99.512;2022-08-21T07:14:17;10.20;;;3.10;;
36797;SDS011;22748;8.426;99.512;2022-08-21T07:19:17;6.72;;;2.75;;
36797;SDS011;22748;8.426;99.512;2022-08-21T07:21:47;12.73;;;3.10;;
36797;SDS011;22748;8.426;99.512;2022-08-21T07:24:17;8.95;;;3.20;;
36797;SDS011;22748;8.426;99.512;2022-08-21T07:26:48;10.00;;;3.20;;
36797;SDS011;22748;8.426;99.512;2022-08-21T07:29:18;8.95;;;2.70;;
36797;SDS011;22748;8.426;99.512;2022-08-21T07:31:47;6.35;;;2.47;;
36797;SDS011;22748;8.426;99.512;2022-08-21T07:34:17;6.97;;;2.63;;
36797;SDS011;22748;8.426;99.512;2022-08-21T07:36:47;5.80;;;2.22;;
36797;SDS011;22748;8.426;99.512;2022-08-21T07:39:18;6.70;;;2.13;;
36797;SDS011;22748;8.426;99.512;2022-08-21T07:41:51;6.75;;;2.08;;
36797;SDS011;22748;8.426;99.512;2022-08-21T07:44:23;7.43;;;2.08;;
36797;SDS011;22748;8.426;99.512;2022-08-21T07:46:52;6.82;;;2.78;;
36797;SDS011;22748;8.426;99.512;2022-08-21T07:49:23;5.65;;;2.47;;
36797;SDS011;22748;8.426;99.512;2022-08-21T07:51:55;6.18;;;2.80;;
36797;SDS011;22748;8.426;99.512;2022-08-21T07:54:27;7.00;;;2.83;;
36797;SDS011;22748;8.426;99.512;2022-08-21T07:57:00;10.88;;;2.88;;
36797;SDS011;22748;8.426;99.512;2022-08-21T07:59:32;9.30;;;3.65;;
36797;SDS011;22748;8.426;99.512;2022-08-21T08:02:02;5.88;;;3.00;;
36797;SDS011;22748;8.426;99.512;2022-08-21T08:04:34;8.35;;;4.38;;
36797;SDS011;22748;8.426;99.512;2022-08-21T08:07:05;35.20;;;13.40;;
36797;SDS011;22748;8.426;99.512;2022-08-21T08:09:36;22.08;;;8.75;;
36797;SDS011;22748;8.426;99.512;2022-08-21T08:12:12;18.92;;;7.22;;
36797;SDS011;22748;8.426;99.512;2022-08-21T08:14:42;10.73;;;4.75;;
36797;SDS011;22748;8.426;99.512;2022-08-21T08:17:12;13.60;;;4.63;;
36797;SDS011;22748;8.426;99.512;2022-08-21T08:19:41;13.05;;;4.95;;
36797;SDS011;22748;8.426;99.512;2022-08-21T08:22:14;10.98;;;4.25;;
36797;SDS011;22748;8.426;99.512;2022-08-21T08:24:50;7.97;;;4.35;;
36797;SDS011;22748;8.426;99.512;2022-08-21T08:27:24;6.57;;;3.00;;
36797;SDS011;22748;8.426;99.512;2022-08-21T08:29:54;6.82;;;3.28;;
36797;SDS011;22748;8.426;99.512;2022-08-21T08:32:25;4.10;;;2.17;;
36797;SDS011;22748;8.426;99.512;2022-08-21T08:34:57;4.80;;;2.33;;
36797;SDS011;22748;8.426;99.512;2022-08-21T08:37:30;7.10;;;2.45;;
36797;SDS011;22748;8.426;99.512;2022-08-21T08:40:04;5.80;;;3.28;;
36797;SDS011;22748;8.426;99.512;2022-08-21T08:42:39;6.85;;;2.70;;
36797;SDS011;22748;8.426;99.512;2022-08-21T08:45:11;4.93;;;2.78;;
36797;SDS011;22748;8.426;99.512;2022-08-21T08:47:51;8.57;;;2.10;;
36797;SDS011;22748;8.426;99.512;2022-08-21T08:50:27;4.38;;;1.73;;
36797;SDS011;22748;8.426;99.512;2022-08-21T08:53:02;3.55;;;1.77;;
36797;SDS011;22748;8.426;99.512;2022-08-21T08:55:35;3.50;;;1.92;;
36797;SDS011;22748;8.426;99.512;2022-08-21T08:58:15;7.85;;;2.10;;
36797;SDS011;22748;8.426;99.512;2022-08-21T09:00:49;4.43;;;1.80;;
36797;SDS011;22748;8.426;99.512;2022-08-21T09:03:20;7.07;;;2.20;;
36797;SDS011;22748;8.426;99.512;2022-08-21T09:05:55;4.40;;;2.17;;
36797;SDS011;22748;8.426;99.512;2022-08-21T09:08:40;5.95;;;2.45;;
36797;SDS011;22748;8.426;99.512;2022-08-21T09:11:21;4.95;;;2.00;;
36797;SDS011;22748;8.426;99.512;2022-08-21T09:14:03;3.60;;;2.13;;
36797;SDS011;22748;8.426;99.512;2022-08-21T09:16:46;3.58;;;2.10;;
36797;SDS011;22748;8.426;99.512;2022-08-21T09:19:26;6.03;;;2.67;;
36797;SDS011;22748;8.426;99.512;2022-08-21T09:22:13;7.05;;;2.55;;
36797;SDS011;22748;8.426;99.512;2022-08-21T09:24:51;7.63;;;2.83;;
36797;SDS011;22748;8.426;99.512;2022-08-21T09:27:36;5.95;;;2.28;;
36797;SDS011;22748;8.426;99.512;2022-08-21T09:30:09;3.88;;;2.03;;
36797;SDS011;22748;8.426;99.512;2022-08-21T09:32:40;5.93;;;1.85;;
36797;SDS011;22748;8.426;99.512;2022-08-21T09:35:13;4.53;;;2.03;;
36797;SDS011;22748;8.426;99.512;2022-08-21T09:37:48;7.75;;;2.47;;
36797;SDS011;22748;8.426;99.512;2022-08-21T09:40:30;4.72;;;2.10;;
36797;SDS011;22748;8.426;99.512;2022-08-21T09:43:04;5.68;;;1.60;;
36797;SDS011;22748;8.426;99.512;2022-08-21T09:45:40;4.28;;;1.38;;
36797;SDS011;22748;8.426;99.512;2022-08-21T09:48:11;5.68;;;1.67;;
36797;SDS011;22748;8.426;99.512;2022-08-21T09:50:43;4.80;;;1.50;;
36797;SDS011;22748;8.426;99.512;2022-08-21T09:53:16;3.25;;;1.38;;
36797;SDS011;22748;8.426;99.512;2022-08-21T09:55:48;2.83;;;1.20;;
36797;SDS011;22748;8.426;99.512;2022-08-21T09:58:34;3.65;;;1.40;;
36797;SDS011;22748;8.426;99.512;2022-08-21T10:01:12;5.80;;;1.13;;
36797;SDS011;22748;8.426;99.512;2022-08-21T10:03:43;4.93;;;1.30;;
36797;SDS011;22748;8.426;99.512;2022-08-21T10:06:21;4.53;;;1.33;;
36797;SDS011;22748;8.426;99.512;2022-08-21T10:09:03;5.10;;;1.40;;
36797;SDS011;22748;8.426;99.512;2022-08-21T10:11:37;3.28;;;1.00;;
36797;SDS011;22748;8.426;99.512;2022-08-21T10:14:11;2.88;;;1.20;;
36797;SDS011;22748;8.426;99.512;2022-08-21T10:16:57;4.82;;;1.35;;
36797;SDS011;22748;8.426;99.512;2022-08-21T10:19:34;3.17;;;1.52;;
36797;SDS011;22748;8.426;99.512;2022-08-21T10:22:14;2.95;;;1.27;;
36797;SDS011;22748;8.426;99.512;2022-08-21T10:24:58;6.35;;;1.30;;
36797;SDS011;22748;8.426;99.512;2022-08-21T10:27:39;4.93;;;1.85;;
36797;SDS011;22748;8.426;99.512;2022-08-21T10:30:37;4.00;;;1.55;;
36797;SDS011;22748;8.426;99.512;2022-08-21T10:33:16;3.92;;;1.70;;
36797;SDS011;22748;8.426;99.512;2022-08-21T10:36:00;8.45;;;1.90;;
36797;SDS011;22748;8.426;99.512;2022-08-21T10:38:42;3.83;;;1.50;;
36797;SDS011;22748;8.426;99.512;2022-08-21T10:41:31;4.93;;;2.60;;
36797;SDS011;22748;8.426;99.512;2022-08-21T10:44:21;7.22;;;2.03;;
36797;SDS011;22748;8.426;99.512;2022-08-21T10:47:06;7.45;;;3.13;;
36797;SDS011;22748;8.426;99.512;2022-08-21T10:49:45;4.60;;;2.00;;
36797;SDS011;22748;8.426;99.512;2022-08-21T10:52:30;4.45;;;2.10;;
36797;SDS011;22748;8.426;99.512;2022-08-21T10:55:12;5.65;;;2.47;;
36797;SDS011;22748;8.426;99.512;2022-08-21T10:57:46;3.08;;;1.85;;
36797;SDS011;22748;8.426;99.512;2022-08-21T11:00:20;3.47;;;1.88;;
36797;SDS011;22748;8.426;99.512;2022-08-21T11:02:55;3.58;;;1.80;;
36797;SDS011;22748;8.426;99.512;2022-08-21T11:05:35;5.18;;;1.80;;
36797;SDS011;22748;8.426;99.512;2022-08-21T11:08:12;5.03;;;2.60;;
36797;SDS011;22748;8.426;99.512;2022-08-21T11:10:46;6.82;;;3.35;;
36797;SDS011;22748;8.426;99.512;2022-08-21T11:13:21;5.43;;;3.70;;
36797;SDS011;22748;8.426;99.512;2022-08-21T11:16:07;4.70;;;2.95;;
36797;SDS011;22748;8.426;99.512;2022-08-21T11:18:47;5.00;;;2.67;;
36797;SDS011;22748;8.426;99.512;2022-08-21T11:21:29;5.50;;;2.08;;
36797;SDS011;22748;8.426;99.512;2022-08-21T11:27:01;3.20;;;1.83;;
36797;SDS011;22748;8.426;99.512;2022-08-21T11:29:40;6.30;;;2.10;;
36797;SDS011;22748;8.426;99.512;2022-08-21T11:32:28;2.90;;;1.90;;
36797;SDS011;22748;8.426;99.512;2022-08-21T11:35:17;6.93;;;2.63;;
36797;SDS011;22748;8.426;99.512;2022-08-21T11:37:58;7.22;;;2.53;;
36797;SDS011;22748;8.426;99.512;2022-08-21T11:40:42;6.25;;;3.47;;
36797;SDS011;22748;8.426;99.512;2022-08-21T11:43:23;6.22;;;3.97;;
36797;SDS011;22748;8.426;99.512;2022-08-21T11:46:06;5.40;;;3.20;;
36797;SDS011;22748;8.426;99.512;2022-08-21T11:48:48;5.93;;;2.70;;
36797;SDS011;22748;8.426;99.512;2022-08-21T11:51:36;5.35;;;3.15;;
36797;SDS011;22748;8.426;99.512;2022-08-21T11:54:16;6.60;;;2.63;;
36797;SDS011;22748;8.426;99.512;2022-08-21T11:56:56;5.80;;;3.30;;
36797;SDS011;22748;8.426;99.512;2022-08-21T11:59:35;5.70;;;3.17;;
36797;SDS011;22748;8.426;99.512;2022-08-21T12:02:12;8.32;;;3.90;;
36797;SDS011;22748;8.426;99.512;2022-08-21T12:04:49;10.43;;;4.78;;
36797;SDS011;22748;8.426;99.512;2022-08-21T12:07:31;5.28;;;3.88;;
36797;SDS011;22748;8.426;99.512;2022-08-21T12:10:10;5.47;;;3.58;;
36797;SDS011;22748;8.426;99.512;2022-08-21T12:12:44;8.10;;;5.22;;
36797;SDS011;22748;8.426;99.512;2022-08-21T12:15:24;8.45;;;5.75;;
36797;SDS011;22748;8.426;99.512;2022-08-21T12:17:58;8.48;;;5.22;;
36797;SDS011;22748;8.426;99.512;2022-08-21T12:20:38;6.47;;;4.45;;
36797;SDS011;22748;8.426;99.512;2022-08-21T12:23:27;8.25;;;5.45;;
36797;SDS011;22748;8.426;99.512;2022-08-21T12:26:33;7.45;;;4.30;;
36797;SDS011;22748;8.426;99.512;2022-08-21T12:29:07;8.55;;;6.20;;
36797;SDS011;22748;8.426;99.512;2022-08-21T12:31:51;5.65;;;4.85;;
36797;SDS011;22748;8.426;99.512;2022-08-21T12:34:28;7.78;;;4.70;;
36797;SDS011;22748;8.426;99.512;2022-08-21T12:37:04;7.32;;;3.97;;
36797;SDS011;22748;8.426;99.512;2022-08-21T12:39:46;7.53;;;5.60;;
36797;SDS011;22748;8.426;99.512;2022-08-21T12:42:23;5.55;;;4.55;;
36797;SDS011;22748;8.426;99.512;2022-08-21T12:45:00;8.60;;;5.47;;
36797;SDS011;22748;8.426;99.512;2022-08-21T12:47:36;6.32;;;5.20;;
36797;SDS011;22748;8.426;99.512;2022-08-21T12:50:16;6.43;;;4.50;;
36797;SDS011;22748;8.426;99.512;2022-08-21T12:52:51;8.48;;;4.90;;
36797;SDS011;22748;8.426;99.512;2022-08-21T12:55:29;6.25;;;4.72;;
36797;SDS011;22748;8.426;99.512;2022-08-21T12:58:15;7.57;;;5.03;;
36797;SDS011;22748;8.426;99.512;2022-08-21T13:00:50;7.47;;;4.78;;
36797;SDS011;22748;8.426;99.512;2022-08-21T13:03:23;6.22;;;4.57;;
36797;SDS011;22748;8.426;99.512;2022-08-21T13:05:59;6.15;;;4.40;;
36797;SDS011;22748;8.426;99.512;2022-08-21T13:08:31;5.57;;;4.50;;
36797;SDS011;22748;8.426;99.512;2022-08-21T13:11:26;6.95;;;5.00;;
36797;SDS011;22748;8.426;99.512;2022-08-21T13:13:58;6.95;;;4.90;;
36797;SDS011;22748;8.426;99.512;2022-08-21T13:16:31;9.45;;;5.07;;
36797;SDS011;22748;8.426;99.512;2022-08-21T13:19:04;8.23;;;4.15;;
36797;SDS011;22748;8.426;99.512;2022-08-21T13:21:39;5.70;;;3.88;;
36797;SDS011;22748;8.426;99.512;2022-08-21T13:24:13;5.88;;;3.80;;
36797;SDS011;22748;8.426;99.512;2022-08-21T13:26:45;9.98;;;5.45;;
36797;SDS011;22748;8.426;99.512;2022-08-21T13:29:19;8.48;;;4.57;;
36797;SDS011;22748;8.426;99.512;2022-08-21T13:31:51;7.45;;;4.32;;
36797;SDS011;22748;8.426;99.512;2022-08-21T13:34:26;5.15;;;3.53;;
36797;SDS011;22748;8.426;99.512;2022-08-21T13:37:02;5.90;;;3.40;;
36797;SDS011;22748;8.426;99.512;2022-08-21T13:39:34;6.90;;;3.45;;
36797;SDS011;22748;8.426;99.512;2022-08-21T13:42:10;5.95;;;3.50;;
36797;SDS011;22748;8.426;99.512;2022-08-21T13:44:43;5.15;;;3.83;;
36797;SDS011;22748;8.426;99.512;2022-08-21T13:47:15;4.10;;;3.40;;
36797;SDS011;22748;8.426;99.512;2022-08-21T13:52:20;8.00;;;4.10;;
36797;SDS011;22748;8.426;99.512;2022-08-21T13:54:53;6.00;;;4.15;;
36797;SDS011;22748;8.426;99.512;2022-08-21T13:57:27;5.00;;;3.38;;
36797;SDS011;22748;8.426;99.512;2022-08-21T14:00:13;4.80;;;3.67;;
36797;SDS011;22748;8.426;99.512;2022-08-21T14:02:46;8.82;;;4.43;;
36797;SDS011;22748;8.426;99.512;2022-08-21T14:05:20;4.55;;;3.58;;
36797;SDS011;22748;8.426;99.512;2022-08-21T14:07:58;8.07;;;3.67;;
36797;SDS011;22748;8.426;99.512;2022-08-21T14:10:35;4.38;;;3.20;;
36797;SDS011;22748;8.426;99.512;2022-08-21T14:13:20;5.65;;;3.00;;
36797;SDS011;22748;8.426;99.512;2022-08-21T14:16:10;6.43;;;3.00;;
36797;SDS011;22748;8.426;99.512;2022-08-21T14:18:49;6.80;;;2.97;;
36797;SDS011;22748;8.426;99.512;2022-08-21T14:21:30;4.68;;;3.00;;
36797;SDS011;22748;8.426;99.512;2022-08-21T14:24:03;5.95;;;3.03;;
36797;SDS011;22748;8.426;99.512;2022-08-21T14:26:37;6.35;;;3.40;;
36797;SDS011;22748;8.426;99.512;2022-08-21T14:29:17;7.73;;;3.57;;
36797;SDS011;22748;8.426;99.512;2022-08-21T14:31:54;5.32;;;3.30;;
36797;SDS011;22748;8.426;99.512;2022-08-21T14:34:26;7.32;;;3.30;;
36797;SDS011;22748;8.426;99.512;2022-08-21T14:37:03;4.55;;;3.42;;
36797;SDS011;22748;8.426;99.512;2022-08-21T14:39:35;5.15;;;2.90;;
36797;SDS011;22748;8.426;99.512;2022-08-21T14:42:22;8.00;;;3.05;;
36797;SDS011;22748;8.426;99.512;2022-08-21T14:44:59;3.45;;;2.72;;
36797;SDS011;22748;8.426;99.512;2022-08-21T14:47:36;5.63;;;3.05;;
36797;SDS011;22748;8.426;99.512;2022-08-21T14:50:08;4.43;;;2.67;;
36797;SDS011;22748;8.426;99.512;2022-08-21T14:52:41;7.10;;;3.10;;
36797;SDS011;22748;8.426;99.512;2022-08-21T14:55:14;8.32;;;3.05;;
36797;SDS011;22748;8.426;99.512;2022-08-21T14:57:48;6.70;;;3.10;;
36797;SDS011;22748;8.426;99.512;2022-08-21T15:00:22;6.72;;;3.17;;
36797;SDS011;22748;8.426;99.512;2022-08-21T15:02:55;4.53;;;2.95;;
36797;SDS011;22748;8.426;99.512;2022-08-21T15:05:26;4.30;;;2.92;;
36797;SDS011;22748;8.426;99.512;2022-08-21T15:07:57;3.95;;;2.42;;
36797;SDS011;22748;8.426;99.512;2022-08-21T15:10:28;5.53;;;2.85;;
36797;SDS011;22748;8.426;99.512;2022-08-21T15:13:02;4.70;;;2.90;;
36797;SDS011;22748;8.426;99.512;2022-08-21T15:15:35;3.40;;;2.53;;
36797;SDS011;22748;8.426;99.512;2022-08-21T15:18:12;7.43;;;2.90;;
36797;SDS011;22748;8.426;99.512;2022-08-21T15:20:41;4.78;;;2.70;;
36797;SDS011;22748;8.426;99.512;2022-08-21T15:23:11;3.90;;;2.40;;
36797;SDS011;22748;8.426;99.512;2022-08-21T15:25:43;6.20;;;2.70;;
36797;SDS011;22748;8.426;99.512;2022-08-21T15:28:24;4.60;;;2.45;;
36797;SDS011;22748;8.426;99.512;2022-08-21T15:30:56;4.10;;;2.60;;
36797;SDS011;22748;8.426;99.512;2022-08-21T15:33:30;4.60;;;2.47;;
36797;SDS011;22748;8.426;99.512;2022-08-21T15:36:00;6.07;;;2.78;;
36797;SDS011;22748;8.426;99.512;2022-08-21T15:38:32;4.43;;;2.60;;
36797;SDS011;22748;8.426;99.512;2022-08-21T15:41:03;3.60;;;2.42;;
36797;SDS011;22748;8.426;99.512;2022-08-21T15:43:37;3.42;;;2.50;;
36797;SDS011;22748;8.426;99.512;2022-08-21T15:46:13;5.00;;;2.58;;